Date,TemperatureHighF,TemperatureAvgF,TemperatureLowF,DewpointHighF,DewpointAvgF,DewpointLowF,HumidityHigh,HumidityAvg,HumidityLow,PressureMaxIn,PressureMinIn,WindSpeedMaxMPH,WindSpeedAvgMPH,GustSpeedMaxMPH,PrecipitationSumIn
2013-4-1,39,34,28,31,21,16,77,59,43,30.12,29.79,14,8,26,0.01
2013-4-2,41,32,24,22,16,9,81,54,27,30.27,30.12,14,5,23,0.00
2013-4-3,42,31,23,24,17,12,79,58,29,30.42,30.27,10,2,15,0.00
2013-4-7,60,54,48,44,41,36,83,61,48,29.97,29.82,15,7,24,0.04
2013-4-8,72,54,43,57,45,35,94,72,50,29.98,29.72,25,9,41,0.19
2013-4-9,77,61,48,61,52,43,87,72,53,30.01,29.84,17,7,28,0.01
2013-4-10,65,51,45,58,49,43,97,92,78,29.91,29.80,13,5,24,0.44
2013-4-11,46,43,40,45,42,39,98,96,94,29.88,29.57,17,11,42,1.03
2013-4-12,43,40,38,41,36,32,98,87,76,29.84,29.56,16,8,26,0.36
2013-4-13,43,39,34,35,32,29,94,77,60,29.98,29.84,17,8,29,0.02
2013-4-14,61,47,38,49,40,33,89,76,63,30.03,29.82,16,7,25,0.01
2013-4-15,65,58,50,56,51,44,85,78,72,29.91,29.81,18,8,30,0.01
2013-4-16,60,49,44,55,43,35,96,80,52,30.23,29.88,10,4,18,0.34
2013-4-17,54,50,45,47,42,37,93,76,67,30.24,29.95,18,9,29,0.44
2013-4-18,72,58,45,66,56,43,96,91,79,29.95,29.54,27,10,44,1.68
2013-4-19,60,40,34,59,36,30,96,83,74,29.85,29.49,18,13,37,1.68
2013-4-20,42,37,32,32,26,19,93,66,44,30.43,29.85,14,8,27,0.02
2013-4-21,50,39,28,34,26,19,78,59,42,30.55,30.40,12,6,18,0.00
2013-4-22,63,49,33,38,33,29,85,58,32,30.40,30.11,9,5,17,0.00
2013-4-23,66,55,43,55,46,38,96,73,54,30.12,29.82,17,7,25,0.90
2013-4-24,43,39,36,42,36,28,95,88,56,30.04,29.81,15,9,25,1.13
2013-4-25,49,46,39,36,34,31,87,63,51,30.35,30.25,11,4,19,0.01
2013-4-26,61,48,32,40,35,30,94,66,41,30.42,30.32,12,4,19,0.01
2013-4-27,67,56,40,49,40,35,89,58,33,30.34,30.05,13,4,21,0.00
2013-4-28,58,55,51,56,51,-100,97,91,66,30.05,29.83,7,3,13,0.25
2013-4-29,69,60,53,57,54,52,98,81,59,29.96,29.86,11,5,18,0.01
2013-4-30,78,68,55,62,57,51,85,69,56,30.02,29.91,16,8,25,0.00